Time;durP1;ratioP1;P1;durP2;ratioP2;P2;SDS_P1;SDS_P2;PMS_P1;PMS_P2;Temp;Humidity;BMP_temperature;BMP_pressure;BME280_temperature;BME280_humidity;BME280_pressure;Samples;Min_cycle;Max_cycle;Signal;HPM_P1;HPM_P2
2021/05/23 00:02:08;;;;;;;1.20;1.00;;;12.70;98.00;;;;;;5052225;28;20495;-71
2021/05/23 00:04:34;;;;;;;2.27;1.33;;;12.80;98.00;;;;;;5054963;28;20453;-72
2021/05/23 00:07:02;;;;;;;1.20;1.00;;;12.70;98.00;;;;;;5050890;28;20491;-71
2021/05/23 00:09:29;;;;;;;1.20;0.90;;;12.70;98.00;;;;;;5055072;28;20463;-71
2021/05/23 00:11:55;;;;;;;1.20;1.00;;;12.60;98.00;;;;;;5051999;28;20467;-72
2021/05/23 00:14:23;;;;;;;2.73;1.27;;;12.60;98.00;;;;;;5054815;28;20484;-72
2021/05/23 00:16:50;;;;;;;1.20;1.00;;;12.60;98.00;;;;;;5052269;28;20462;-72
2021/05/23 00:19:16;;;;;;;1.20;1.00;;;12.60;98.00;;;;;;5054843;28;20804;-72
2021/05/23 00:21:44;;;;;;;1.20;1.00;;;12.60;98.00;;;;;;5050663;28;20517;-72
2021/05/23 00:24:12;;;;;;;1.20;1.10;;;12.50;98.00;;;;;;5053334;28;20512;-72
2021/05/23 00:26:39;;;;;;;1.20;1.00;;;12.30;98.00;;;;;;5051505;28;20488;-71
2021/05/23 00:29:07;;;;;;;1.20;1.00;;;12.30;98.00;;;;;;5054195;28;20514;-71
2021/05/23 00:31:34;;;;;;;1.20;1.00;;;12.30;98.00;;;;;;5051487;28;20464;-72
2021/05/23 00:34:00;;;;;;;1.30;1.13;;;12.30;98.00;;;;;;5054200;28;20454;-71
2021/05/23 00:36:27;;;;;;;1.20;1.10;;;12.20;98.00;;;;;;5051528;28;20448;-72
2021/05/23 00:38:54;;;;;;;1.20;0.90;;;12.10;98.00;;;;;;5053051;28;20462;-72
2021/05/23 00:41:22;;;;;;;1.20;1.00;;;12.00;98.00;;;;;;5051365;28;20921;-72
2021/05/23 00:43:49;;;;;;;1.20;1.00;;;12.00;98.00;;;;;;5054124;28;20462;-71
2021/05/23 00:46:15;;;;;;;1.20;1.00;;;12.00;98.00;;;;;;5051101;28;20485;-72
2021/05/23 00:48:42;;;;;;;1.30;1.10;;;11.90;98.00;;;;;;5053827;28;20886;-72
2021/05/23 00:51:10;;;;;;;1.20;1.00;;;12.00;98.00;;;;;;5051454;28;20921;-72
2021/05/23 00:53:36;;;;;;;1.60;1.10;;;12.00;98.00;;;;;;5052530;28;20490;-72
2021/05/23 00:56:03;;;;;;;1.20;1.00;;;12.00;98.00;;;;;;5051107;28;20565;-72
2021/05/23 00:58:31;;;;;;;1.20;0.90;;;12.10;98.00;;;;;;5053612;28;20452;-72
2021/05/23 01:01:14;;;;;;;1.20;0.93;;;12.00;98.00;;;;;;5051056;28;20950;-71
2021/05/23 01:03:56;;;;;;;1.30;1.10;;;12.00;98.00;;;;;;5053877;28;20462;-72
2021/05/23 01:06:24;;;;;;;1.20;1.00;;;11.90;98.00;;;;;;5051230;28;20482;-72
2021/05/23 01:08:51;;;;;;;1.20;0.90;;;12.00;98.00;;;;;;5053915;28;20897;-72
2021/05/23 01:11:51;;;;;;;1.20;1.00;;;12.10;98.00;;;;;;5051193;28;20468;-71
2021/05/23 01:14:23;;;;;;;1.20;1.00;;;12.00;98.00;;;;;;5053800;28;20469;-72
2021/05/23 01:16:52;;;;;;;1.20;1.00;;;12.00;98.00;;;;;;5050946;28;20450;-72
2021/05/23 01:19:23;;;;;;;1.20;1.00;;;12.00;98.00;;;;;;5053615;28;20503;-72
2021/05/23 01:21:53;;;;;;;1.20;1.00;;;12.00;98.00;;;;;;5051228;28;20460;-72
2021/05/23 01:24:30;;;;;;;1.20;0.90;;;12.00;98.00;;;;;;5053376;28;20902;-71
2021/05/23 01:26:58;;;;;;;1.30;1.10;;;12.10;98.00;;;;;;5050651;28;20486;-72
2021/05/23 01:29:25;;;;;;;1.20;1.00;;;12.20;98.00;;;;;;5053621;28;20463;-72
2021/05/23 01:31:54;;;;;;;1.20;0.90;;;12.20;98.00;;;;;;5050794;28;20501;-72
2021/05/23 01:34:22;;;;;;;1.20;1.00;;;12.20;98.00;;;;;;5053268;28;20470;-72
2021/05/23 01:36:59;;;;;;;1.20;1.00;;;12.10;98.00;;;;;;5050484;28;20447;-71
2021/05/23 01:39:27;;;;;;;1.20;1.00;;;12.00;98.00;;;;;;5053001;28;20465;-72
2021/05/23 01:41:55;;;;;;;1.20;1.00;;;11.90;98.00;;;;;;5050470;28;20566;-72
2021/05/23 01:44:25;;;;;;;1.20;1.00;;;11.80;98.00;;;;;;5053095;28;20807;-72
2021/05/23 01:46:53;;;;;;;1.20;1.00;;;11.70;98.00;;;;;;5050397;28;21078;-73
2021/05/23 01:49:25;;;;;;;1.20;1.00;;;11.70;98.00;;;;;;5052919;28;20499;-71
2021/05/23 01:51:52;;;;;;;1.20;1.00;;;11.70;98.00;;;;;;5050295;28;20550;-72
2021/05/23 01:54:20;;;;;;;1.20;1.00;;;11.80;98.00;;;;;;5052097;28;20460;-72
2021/05/23 01:56:46;;;;;;;1.20;1.00;;;11.80;98.00;;;;;;5049998;28;20834;-72
2021/05/23 01:59:13;;;;;;;1.77;1.10;;;11.90;98.00;;;;;;5052749;28;20493;-72
2021/05/23 02:01:40;;;;;;;1.20;0.90;;;11.70;98.00;;;;;;5050172;28;20873;-72
2021/05/23 02:04:07;;;;;;;1.20;0.90;;;11.70;98.00;;;;;;5051521;28;20547;-72
2021/05/23 02:06:33;;;;;;;1.20;1.00;;;11.70;98.00;;;;;;5050064;28;20481;-71
2021/05/23 02:09:03;;;;;;;1.20;0.90;;;11.60;98.00;;;;;;5052659;28;20465;-72
2021/05/23 02:11:29;;;;;;;1.20;0.90;;;11.60;98.00;;;;;;5050342;28;20523;-72
2021/05/23 02:13:56;;;;;;;1.20;1.00;;;11.60;98.00;;;;;;5052543;28;20519;-71
2021/05/23 02:16:23;;;;;;;1.20;1.07;;;11.40;98.00;;;;;;5050170;28;20461;-72
2021/05/23 02:18:51;;;;;;;1.20;0.90;;;11.30;98.00;;;;;;5052332;28;20496;-72
2021/05/23 02:21:17;;;;;;;1.20;1.00;;;11.30;98.00;;;;;;5049924;28;20455;-72
2021/05/23 02:23:51;;;;;;;1.20;0.90;;;11.20;98.00;;;;;;5052645;28;20457;-72
2021/05/23 02:26:18;;;;;;;1.20;0.90;;;11.10;98.00;;;;;;5048437;28;20552;-72
2021/05/23 02:28:45;;;;;;;1.20;1.00;;;11.10;98.00;;;;;;5052183;28;20549;-72
2021/05/23 02:31:12;;;;;;;1.30;1.00;;;11.30;98.00;;;;;;5049749;28;20532;-72
2021/05/23 02:33:38;;;;;;;1.67;1.00;;;11.30;98.00;;;;;;5052095;28;20520;-72
2021/05/23 02:36:06;;;;;;;1.30;1.10;;;11.40;98.00;;;;;;5047960;28;21054;-72
2021/05/23 02:38:33;;;;;;;1.40;1.10;;;11.40;98.00;;;;;;5051982;28;20512;-72
2021/05/23 02:41:00;;;;;;;1.40;1.03;;;11.50;98.00;;;;;;5048306;28;20462;-71
2021/05/23 02:43:26;;;;;;;1.20;1.00;;;11.40;98.00;;;;;;5052061;28;20490;-71
2021/05/23 02:45:53;;;;;;;1.20;1.00;;;11.50;98.00;;;;;;5047664;28;20519;-72
2021/05/23 02:48:20;;;;;;;1.20;1.03;;;11.60;98.00;;;;;;5051994;28;20464;-72
2021/05/23 02:50:48;;;;;;;1.20;1.00;;;11.60;98.00;;;;;;5048883;28;20515;-72
2021/05/23 02:53:16;;;;;;;1.20;0.90;;;11.50;98.00;;;;;;5051958;28;20450;-72
2021/05/23 02:55:45;;;;;;;1.20;1.00;;;11.50;98.00;;;;;;5048987;28;20463;-72
2021/05/23 02:58:13;;;;;;;1.20;0.90;;;11.60;98.00;;;;;;5051911;28;20484;-72
2021/05/23 03:00:40;;;;;;;1.20;0.90;;;11.50;98.00;;;;;;5049960;28;20986;-72
2021/05/23 03:03:07;;;;;;;1.20;0.90;;;11.50;98.00;;;;;;5051781;28;20502;-72
2021/05/23 03:05:33;;;;;;;1.20;1.00;;;11.50;98.00;;;;;;5050668;28;20822;-72
2021/05/23 03:08:00;;;;;;;1.20;1.00;;;11.60;98.00;;;;;;5047914;28;20462;-72
2021/05/23 03:10:31;;;;;;;1.20;1.00;;;11.50;98.00;;;;;;5052013;28;20497;-72
2021/05/23 03:12:58;;;;;;;1.20;0.90;;;11.30;98.00;;;;;;5048706;28;20477;-72
2021/05/23 03:15:26;;;;;;;1.20;0.90;;;11.10;98.00;;;;;;5051774;28;20993;-72
2021/05/23 03:17:53;;;;;;;1.20;1.00;;;11.00;98.00;;;;;;5047601;28;20469;-72
2021/05/23 03:20:21;;;;;;;2.30;1.93;;;10.90;98.00;;;;;;5051572;28;20495;-72
2021/05/23 03:22:50;;;;;;;1.40;1.17;;;10.80;98.00;;;;;;5048686;28;20458;-73
2021/05/23 03:25:18;;;;;;;1.20;1.00;;;10.50;98.00;;;;;;5051533;28;20458;-73
2021/05/23 03:27:45;;;;;;;1.20;1.00;;;10.50;98.00;;;;;;5048444;28;20898;-73
2021/05/23 03:30:14;;;;;;;1.80;1.10;;;10.50;98.00;;;;;;5051373;28;20497;-73
2021/05/23 03:32:41;;;;;;;1.20;0.90;;;10.40;98.00;;;;;;5048419;28;20786;-74
2021/05/23 03:35:09;;;;;;;1.20;1.00;;;10.50;98.00;;;;;;5051297;28;20455;-73
2021/05/23 03:37:36;;;;;;;1.20;0.90;;;10.40;98.00;;;;;;5048473;28;20452;-73
2021/05/23 03:40:04;;;;;;;1.20;1.00;;;10.20;98.00;;;;;;5051106;28;20482;-73
2021/05/23 03:42:31;;;;;;;1.20;1.00;;;10.20;98.00;;;;;;5048538;28;20462;-72
2021/05/23 03:44:58;;;;;;;1.20;0.90;;;10.30;98.00;;;;;;5050961;28;20939;-73
2021/05/23 03:47:25;;;;;;;1.20;0.97;;;10.40;98.00;;;;;;5048085;28;21033;-73
2021/05/23 03:49:53;;;;;;;1.20;0.90;;;10.50;98.00;;;;;;5050843;28;21052;-72
2021/05/23 03:52:20;;;;;;;1.20;0.90;;;10.40;98.00;;;;;;5048118;28;21060;-73
2021/05/23 03:54:49;;;;;;;1.20;0.90;;;10.30;98.00;;;;;;5051041;28;20457;-73
2021/05/23 03:57:16;;;;;;;1.20;1.00;;;10.40;98.00;;;;;;5046830;28;20453;-73
2021/05/23 03:59:43;;;;;;;1.20;1.00;;;10.40;98.00;;;;;;5051230;28;20462;-73
2021/05/23 04:02:10;;;;;;;1.20;0.90;;;10.50;98.00;;;;;;5047942;28;20461;-72
2021/05/23 04:04:47;;;;;;;1.20;0.90;;;10.60;98.00;;;;;;5051150;28;20456;-73
2021/05/23 04:07:15;;;;;;;1.30;1.10;;;10.70;98.00;;;;;;5046457;28;20485;-73
2021/05/23 04:09:43;;;;;;;1.20;0.93;;;10.80;98.00;;;;;;5051178;28;20458;-73
2021/05/23 04:12:14;;;;;;;1.20;1.00;;;10.80;98.00;;;;;;5047238;28;20467;-72
2021/05/23 04:14:41;;;;;;;1.20;1.00;;;10.70;98.00;;;;;;5051033;28;20459;-73
2021/05/23 04:17:08;;;;;;;1.20;0.90;;;10.60;98.00;;;;;;5049161;28;20479;-73
2021/05/23 04:19:36;;;;;;;1.20;1.00;;;10.50;98.00;;;;;;5054600;28;20491;-72
2021/05/23 04:22:03;;;;;;;1.20;0.90;;;10.40;98.00;;;;;;5051070;28;20483;-73
2021/05/23 04:24:30;;;;;;;1.20;1.00;;;10.50;98.00;;;;;;5054034;28;20852;-73
2021/05/23 04:26:57;;;;;;;1.20;0.90;;;10.50;98.00;;;;;;5050781;28;20522;-73
2021/05/23 04:29:23;;;;;;;1.20;0.93;;;10.50;98.00;;;;;;5053081;28;20456;-72
2021/05/23 04:31:50;;;;;;;1.20;0.90;;;10.60;98.00;;;;;;5051005;28;20461;-73
2021/05/23 04:34:16;;;;;;;1.57;1.10;;;10.70;98.00;;;;;;5054647;28;20802;-72
2021/05/23 04:36:44;;;;;;;1.20;0.90;;;10.80;98.00;;;;;;5051388;28;20512;-73
2021/05/23 04:39:10;;;;;;;1.20;0.90;;;10.90;98.00;;;;;;5054419;28;20454;-73
2021/05/23 04:41:37;;;;;;;1.20;1.00;;;11.10;98.00;;;;;;5051219;28;20551;-72
2021/05/23 04:44:06;;;;;;;1.20;0.90;;;11.20;98.00;;;;;;5054241;28;20490;-73
2021/05/23 04:46:32;;;;;;;1.20;0.90;;;11.20;98.00;;;;;;5051584;28;20483;-74
2021/05/23 04:48:59;;;;;;;1.20;0.90;;;11.00;98.00;;;;;;5053936;28;20546;-72
2021/05/23 04:51:25;;;;;;;1.20;0.90;;;11.00;98.00;;;;;;5051305;28;20457;-72
2021/05/23 04:53:53;;;;;;;1.20;0.90;;;11.00;98.00;;;;;;5054020;28;20484;-72
2021/05/23 04:56:19;;;;;;;1.20;0.90;;;10.90;98.00;;;;;;5049729;28;20488;-72
2021/05/23 04:58:46;;;;;;;1.20;0.90;;;11.00;98.00;;;;;;5054052;28;20461;-72
2021/05/23 05:01:12;;;;;;;1.20;1.00;;;11.10;98.00;;;;;;5050833;28;20469;-72
2021/05/23 05:03:39;;;;;;;1.20;0.90;;;11.10;98.00;;;;;;5053980;28;20464;-73
2021/05/23 05:06:06;;;;;;;1.20;0.90;;;11.20;98.00;;;;;;5050636;28;20496;-73
2021/05/23 05:08:33;;;;;;;1.20;0.90;;;11.30;98.00;;;;;;5053765;28;20467;-73
2021/05/23 05:11:01;;;;;;;1.20;1.00;;;11.30;98.00;;;;;;5050658;28;20599;-72
2021/05/23 05:13:27;;;;;;;1.20;0.90;;;11.30;98.00;;;;;;5052246;28;20493;-72
2021/05/23 05:15:54;;;;;;;1.20;0.90;;;11.30;98.00;;;;;;5050852;28;20497;-72
2021/05/23 05:18:20;;;;;;;1.20;0.90;;;11.40;98.00;;;;;;5053702;28;21005;-72
2021/05/23 05:20:47;;;;;;;1.20;1.00;;;11.30;98.00;;;;;;5052458;28;20940;-72
2021/05/23 05:23:13;;;;;;;1.20;0.90;;;11.30;98.00;;;;;;5050317;28;20465;-73
2021/05/23 05:25:40;;;;;;;1.20;0.90;;;11.10;98.00;;;;;;5053493;28;20456;-72
2021/05/23 05:28:07;;;;;;;1.20;1.00;;;11.10;98.00;;;;;;5049657;28;20944;-72
2021/05/23 05:30:34;;;;;;;1.20;0.90;;;11.20;98.00;;;;;;5053444;28;20957;-72
2021/05/23 05:33:00;;;;;;;1.20;0.90;;;11.20;98.00;;;;;;5050657;28;20843;-72
2021/05/23 05:35:27;;;;;;;1.20;1.00;;;11.10;98.00;;;;;;5053403;28;20461;-73
2021/05/23 05:37:53;;;;;;;1.20;0.90;;;11.10;98.00;;;;;;5050253;28;20964;-72
2021/05/23 05:40:21;;;;;;;1.20;1.00;;;11.10;98.00;;;;;;5053287;28;20463;-72
2021/05/23 05:42:48;;;;;;;1.20;0.90;;;11.10;98.00;;;;;;5048933;28;20470;-72
2021/05/23 05:45:16;;;;;;;1.20;1.10;;;11.10;98.00;;;;;;5053152;28;20456;-72
2021/05/23 05:47:42;;;;;;;1.20;1.00;;;11.10;98.00;;;;;;5050828;28;20492;-72
2021/05/23 05:50:10;;;;;;;1.20;0.90;;;11.20;98.00;;;;;;5053025;28;20468;-73
2021/05/23 05:52:37;;;;;;;1.20;0.90;;;11.10;98.00;;;;;;5050594;28;20500;-71
2021/05/23 05:55:05;;;;;;;1.20;0.90;;;11.10;98.00;;;;;;5053110;28;20468;-72
2021/05/23 05:57:31;;;;;;;1.40;1.10;;;11.10;98.00;;;;;;5050341;28;20472;-72
2021/05/23 05:59:58;;;;;;;1.20;0.90;;;11.10;98.00;;;;;;5052662;28;20460;-72
2021/05/23 06:02:25;;;;;;;1.20;0.90;;;11.10;98.00;;;;;;5050522;28;20494;-70
2021/05/23 06:04:52;;;;;;;1.20;0.90;;;11.10;98.00;;;;;;5053405;28;20460;-72
2021/05/23 06:07:18;;;;;;;1.20;0.90;;;11.20;98.00;;;;;;5050338;28;20484;-72
2021/05/23 06:09:45;;;;;;;1.20;0.90;;;11.20;98.00;;;;;;5053074;28;20467;-72
2021/05/23 06:12:12;;;;;;;1.20;1.00;;;11.20;98.00;;;;;;5050232;28;20487;-71
2021/05/23 06:14:38;;;;;;;1.20;0.93;;;11.20;98.00;;;;;;5052445;28;20470;-72
2021/05/23 06:17:05;;;;;;;1.20;0.90;;;11.10;98.00;;;;;;5049850;28;20460;-72
2021/05/23 06:19:36;;;;;;;1.20;1.00;;;11.20;98.00;;;;;;5052587;28;20464;-71
2021/05/23 06:22:03;;;;;;;1.50;1.20;;;11.30;98.00;;;;;;5048855;28;20552;-72
2021/05/23 06:24:35;;;;;;;1.20;0.90;;;11.30;98.00;;;;;;5052708;28;20483;-72
2021/05/23 06:27:01;;;;;;;1.20;0.90;;;11.30;98.00;;;;;;5049487;28;20477;-72
2021/05/23 06:29:28;;;;;;;1.20;0.90;;;11.20;98.00;;;;;;5052269;28;20475;-73
2021/05/23 06:31:55;;;;;;;1.20;1.00;;;11.20;98.00;;;;;;5049224;28;20464;-72
2021/05/23 06:34:21;;;;;;;1.20;0.90;;;11.10;98.00;;;;;;5051642;28;20452;-72
2021/05/23 06:36:49;;;;;;;1.20;1.00;;;11.10;98.00;;;;;;5048993;28;20455;-72
2021/05/23 06:39:15;;;;;;;1.20;1.00;;;11.20;98.00;;;;;;5052821;28;20800;-71
2021/05/23 06:41:42;;;;;;;1.77;1.00;;;11.40;98.00;;;;;;5048956;28;20464;-72
2021/05/23 06:44:09;;;;;;;1.20;0.90;;;11.50;98.00;;;;;;5051804;28;20461;-72
2021/05/23 06:46:36;;;;;;;1.20;0.90;;;11.60;98.00;;;;;;5047654;28;20538;-72
2021/05/23 06:49:03;;;;;;;1.20;0.90;;;11.70;98.00;;;;;;5051304;28;20473;-72
2021/05/23 06:51:30;;;;;;;1.20;0.90;;;11.70;98.00;;;;;;5047833;28;20451;-71
2021/05/23 06:53:58;;;;;;;1.20;1.00;;;11.80;98.00;;;;;;5051695;28;20465;-72
2021/05/23 06:56:25;;;;;;;1.20;0.90;;;11.80;98.00;;;;;;5049091;28;20454;-72
2021/05/23 06:58:51;;;;;;;1.27;0.97;;;11.90;98.00;;;;;;5051979;28;20465;-72
2021/05/23 07:01:18;;;;;;;1.20;1.00;;;12.10;98.00;;;;;;5049083;28;20453;-72
2021/05/23 07:03:45;;;;;;;1.20;0.90;;;12.10;98.00;;;;;;5051791;28;20527;-72
2021/05/23 07:06:12;;;;;;;1.20;1.00;;;12.30;98.00;;;;;;5048938;28;20491;-71
2021/05/23 07:08:38;;;;;;;1.20;0.90;;;12.40;98.00;;;;;;5051639;28;20460;-72
2021/05/23 07:11:06;;;;;;;1.20;1.00;;;12.40;98.00;;;;;;5049218;28;20453;-73
2021/05/23 07:13:33;;;;;;;1.20;0.90;;;12.40;98.00;;;;;;5051689;28;20465;-70
2021/05/23 07:15:59;;;;;;;1.20;0.93;;;12.50;98.00;;;;;;5051716;28;20454;-71
2021/05/23 07:18:26;;;;;;;1.20;0.90;;;12.40;98.00;;;;;;5048556;28;20521;-72
2021/05/23 07:20:55;;;;;;;1.20;0.90;;;12.20;98.00;;;;;;5051452;28;20859;-71
2021/05/23 07:23:22;;;;;;;1.20;0.90;;;12.10;98.00;;;;;;5048538;28;20456;-71
2021/05/23 07:25:48;;;;;;;1.20;0.90;;;11.90;98.00;;;;;;5051078;28;20458;-71
2021/05/23 07:28:16;;;;;;;1.20;0.90;;;11.90;98.00;;;;;;5048452;28;20863;-71
2021/05/23 07:30:42;;;;;;;1.20;1.00;;;12.00;98.00;;;;;;5050201;28;20496;-71
2021/05/23 07:33:09;;;;;;;1.20;0.90;;;12.00;98.00;;;;;;5048217;28;20458;-71
2021/05/23 07:35:35;;;;;;;1.20;0.90;;;12.10;98.00;;;;;;5051189;28;20901;-72
2021/05/23 07:38:05;;;;;;;1.20;1.00;;;12.30;98.00;;;;;;5048224;28;20493;-71
2021/05/23 07:40:31;;;;;;;1.20;0.90;;;12.50;98.00;;;;;;5051056;28;20461;-71
2021/05/23 07:42:57;;;;;;;1.20;0.90;;;12.70;98.00;;;;;;5048424;28;20957;-71
2021/05/23 07:45:25;;;;;;;1.20;0.90;;;12.90;98.00;;;;;;5051098;28;20495;-71
2021/05/23 07:47:52;;;;;;;1.20;0.90;;;13.00;98.00;;;;;;5048755;28;20482;-71
2021/05/23 07:50:18;;;;;;;1.20;1.03;;;13.10;98.00;;;;;;5050010;28;20507;-71
2021/05/23 07:52:45;;;;;;;1.50;1.20;;;13.10;98.00;;;;;;5050965;28;20843;-71
2021/05/23 07:55:13;;;;;;;1.20;0.90;;;13.10;98.00;;;;;;5053218;28;20484;-71
2021/05/23 07:57:39;;;;;;;1.20;0.90;;;13.20;98.00;;;;;;5051987;28;20466;-70
2021/05/23 08:00:07;;;;;;;1.20;0.90;;;13.20;98.00;;;;;;5054450;28;20454;-70
2021/05/23 08:02:35;;;;;;;1.20;0.90;;;13.30;98.00;;;;;;5051806;28;20502;-69
2021/05/23 08:05:10;;;;;;;1.20;1.00;;;13.40;98.00;;;;;;5054617;28;20488;-69
2021/05/23 08:07:37;;;;;;;1.20;0.90;;;13.60;98.00;;;;;;5052019;28;20549;-70
2021/05/23 08:10:04;;;;;;;1.23;0.97;;;13.60;98.00;;;;;;5054002;28;20459;-70
2021/05/23 08:12:32;;;;;;;1.20;1.00;;;13.70;98.00;;;;;;5052016;28;20458;-71
2021/05/23 08:14:58;;;;;;;1.20;1.00;;;13.80;98.00;;;;;;5054380;28;20467;-71
2021/05/23 08:17:26;;;;;;;1.20;1.00;;;13.70;98.00;;;;;;5051273;28;20466;-72
2021/05/23 08:19:53;;;;;;;1.20;0.90;;;13.40;98.00;;;;;;5054611;28;20452;-71
2021/05/23 08:22:20;;;;;;;1.20;1.00;;;12.30;98.00;;;;;;5051868;28;20450;-71
2021/05/23 08:24:46;;;;;;;1.20;0.90;;;10.80;98.00;;;;;;5053876;28;20449;-71
2021/05/23 08:27:13;;;;;;;1.20;0.90;;;10.30;98.00;;;;;;5051256;28;20489;-71
2021/05/23 08:29:40;;;;;;;1.20;0.90;;;10.00;98.00;;;;;;5054564;28;20490;-74
2021/05/23 08:32:07;;;;;;;1.20;0.90;;;10.00;98.00;;;;;;5052088;28;20462;-73
2021/05/23 08:34:33;;;;;;;1.50;1.00;;;9.90;98.00;;;;;;5054092;28;20470;-72
2021/05/23 08:37:01;;;;;;;1.20;0.90;;;9.90;98.00;;;;;;5051222;28;20521;-71
2021/05/23 08:39:28;;;;;;;1.20;0.90;;;9.90;98.00;;;;;;5054143;28;20951;-71
2021/05/23 08:41:55;;;;;;;1.20;0.90;;;9.90;98.00;;;;;;5050443;28;20543;-71
2021/05/23 08:44:22;;;;;;;1.20;0.90;;;10.00;98.00;;;;;;5053623;28;20489;-72
2021/05/23 08:46:51;;;;;;;1.30;1.00;;;10.10;98.00;;;;;;5051224;28;20496;-72
2021/05/23 08:49:18;;;;;;;1.20;1.00;;;10.30;98.00;;;;;;5053570;28;20470;-71
2021/05/23 08:51:46;;;;;;;1.20;0.90;;;10.50;98.00;;;;;;5051703;28;20986;-71
2021/05/23 08:54:14;;;;;;;1.20;0.90;;;10.60;98.00;;;;;;5053352;28;20485;-71
2021/05/23 08:56:41;;;;;;;1.20;0.90;;;11.00;98.00;;;;;;5051628;28;20457;-71
2021/05/23 08:59:08;;;;;;;1.20;0.90;;;11.50;98.00;;;;;;5054174;28;20464;-71
2021/05/23 09:01:35;;;;;;;1.20;1.00;;;11.90;98.00;;;;;;5051483;28;20468;-70
2021/05/23 09:04:03;;;;;;;1.20;0.90;;;12.20;98.00;;;;;;5052932;28;20942;-72
2021/05/23 09:06:33;;;;;;;1.20;1.00;;;12.50;98.00;;;;;;5051186;28;20521;-71
2021/05/23 09:09:02;;;;;;;1.20;1.00;;;12.70;98.00;;;;;;5053804;28;20480;-70
2021/05/23 09:11:30;;;;;;;1.20;0.90;;;12.90;98.00;;;;;;5051020;28;20454;-71
2021/05/23 09:13:57;;;;;;;1.30;1.20;;;13.00;98.00;;;;;;5053457;28;20515;-71
2021/05/23 09:16:24;;;;;;;1.20;0.90;;;13.20;98.00;;;;;;5051103;28;20613;-71
2021/05/23 09:18:52;;;;;;;1.20;1.00;;;13.40;98.00;;;;;;5052294;28;20457;-70
2021/05/23 09:21:22;;;;;;;1.20;0.90;;;13.70;98.00;;;;;;5049207;28;20850;-70
2021/05/23 09:23:51;;;;;;;1.20;0.90;;;13.70;98.00;;;;;;5033526;28;20990;-71
2021/05/23 09:26:20;;;;;;;1.20;1.00;;;13.80;98.00;;;;;;5037139;28;20987;-70
2021/05/23 09:28:49;;;;;;;1.20;1.00;;;13.80;98.00;;;;;;5053349;28;20458;-71
2021/05/23 09:31:18;;;;;;;1.20;0.90;;;13.70;98.00;;;;;;5052367;28;20454;-70
2021/05/23 09:33:47;;;;;;;1.20;1.00;;;13.70;98.00;;;;;;5052886;28;20929;-71
2021/05/23 09:36:14;;;;;;;1.20;1.00;;;13.70;98.00;;;;;;5053034;28;20537;-70
2021/05/23 09:38:50;;;;;;;1.20;1.00;;;13.90;98.00;;;;;;5050367;28;20460;-70
2021/05/23 09:41:21;;;;;;;1.20;0.90;;;14.10;98.00;;;;;;5052545;28;20458;-70
2021/05/23 09:43:49;;;;;;;1.20;0.97;;;14.30;98.00;;;;;;5053257;28;20490;-71
2021/05/23 09:46:16;;;;;;;1.20;1.00;;;14.30;98.00;;;;;;5052769;28;20467;-70
2021/05/23 09:48:49;;;;;;;1.30;1.10;;;14.10;98.00;;;;;;5051407;28;20506;-70
2021/05/23 09:51:18;;;;;;;1.20;1.00;;;13.80;98.00;;;;;;5052903;28;20461;-70
2021/05/23 09:53:45;;;;;;;1.20;0.97;;;13.80;98.00;;;;;;5051432;28;20455;-70
2021/05/23 09:56:14;;;;;;;1.20;1.00;;;13.70;98.00;;;;;;5052952;28;20493;-71
2021/05/23 09:58:43;;;;;;;1.20;1.00;;;13.50;98.00;;;;;;5050567;28;20457;-70
2021/05/23 10:01:23;;;;;;;1.20;0.93;;;13.50;98.00;;;;;;5052933;28;20463;-71
2021/05/23 10:03:50;;;;;;;1.20;1.00;;;13.20;98.00;;;;;;5052793;28;20451;-72
2021/05/23 10:06:26;;;;;;;1.20;1.00;;;12.90;98.00;;;;;;5052796;28;20478;-72
2021/05/23 10:08:54;;;;;;;1.20;1.00;;;12.60;98.00;;;;;;5052833;28;20464;-72
2021/05/23 10:11:20;;;;;;;1.20;1.00;;;12.60;98.00;;;;;;5051994;28;20986;-72
2021/05/23 10:13:47;;;;;;;1.30;1.00;;;12.50;98.00;;;;;;5051282;28;20453;-72
2021/05/23 10:16:15;;;;;;;1.20;0.90;;;12.70;98.00;;;;;;5052410;28;20454;-75
2021/05/23 10:18:52;;;;;;;1.30;1.00;;;12.90;98.00;;;;;;5049813;28;20544;-70
2021/05/23 10:21:19;;;;;;;1.20;1.00;;;13.10;98.00;;;;;;5052475;28;20554;-72
2021/05/23 10:23:51;;;;;;;1.30;1.00;;;13.00;98.00;;;;;;5050322;28;20558;-70
2021/05/23 10:26:22;;;;;;;1.30;1.00;;;13.10;98.00;;;;;;5052187;28;20516;-72
2021/05/23 10:28:51;;;;;;;1.20;0.90;;;12.90;98.00;;;;;;5051127;28;20464;-71
2021/05/23 10:31:28;;;;;;;1.20;1.00;;;12.60;98.00;;;;;;5052285;28;20484;-72
2021/05/23 10:33:56;;;;;;;1.20;0.90;;;12.50;98.00;;;;;;5052355;28;20462;-73
2021/05/23 10:36:30;;;;;;;1.20;0.90;;;12.50;98.00;;;;;;5051510;28;20480;-72
2021/05/23 10:38:57;;;;;;;1.20;1.00;;;12.30;98.00;;;;;;5052463;28;20524;-72
2021/05/23 10:41:24;;;;;;;1.20;0.90;;;12.40;98.00;;;;;;5049715;28;20796;-72
2021/05/23 10:43:57;;;;;;;1.20;1.00;;;12.80;98.00;;;;;;5050840;28;20482;-72
2021/05/23 10:46:26;;;;;;;1.20;0.90;;;13.00;98.00;;;;;;5051266;28;20495;-71
2021/05/23 10:48:53;;;;;;;1.20;1.00;;;13.50;98.00;;;;;;5051569;28;20494;-70
2021/05/23 10:51:21;;;;;;;1.20;0.90;;;14.20;98.00;;;;;;5051930;28;20461;-73
2021/05/23 10:53:52;;;;;;;1.20;0.90;;;14.50;98.00;;;;;;5049884;28;20459;-73
2021/05/23 10:56:29;;;;;;;1.20;0.90;;;14.60;98.00;;;;;;5051503;28;20451;-74
2021/05/23 10:58:57;;;;;;;1.20;0.93;;;15.00;98.00;;;;;;5051161;28;20908;-71
2021/05/23 11:01:44;;;;;;;1.20;0.90;;;15.30;98.00;;;;;;5051112;28;20480;-71
2021/05/23 11:04:13;;;;;;;1.20;0.90;;;15.60;98.00;;;;;;5051058;28;20685;-72
2021/05/23 11:06:41;;;;;;;1.20;1.00;;;15.80;98.00;;;;;;5048731;28;20492;-73
2021/05/23 11:09:10;;;;;;;1.20;1.00;;;15.80;98.00;;;;;;5051606;28;20496;-71
2021/05/23 11:11:37;;;;;;;1.20;1.00;;;15.80;98.00;;;;;;5048680;28;21173;-71
2021/05/23 11:14:18;;;;;;;1.40;1.00;;;16.00;98.00;;;;;;5051325;28;20456;-71
2021/05/23 11:16:52;;;;;;;1.20;1.10;;;16.30;98.00;;;;;;5048906;28;20487;-73
2021/05/23 11:19:19;;;;;;;1.20;1.00;;;16.20;95.80;;;;;;5051524;28;20527;-73
2021/05/23 11:22:01;;;;;;;1.20;1.00;;;16.40;97.10;;;;;;5048935;28;20461;-71
2021/05/23 11:24:30;;;;;;;1.20;1.00;;;16.90;98.00;;;;;;5050544;28;20454;-71
2021/05/23 11:27:13;;;;;;;1.20;0.93;;;17.30;98.00;;;;;;5047410;28;20538;-71
2021/05/23 11:29:45;;;;;;;1.20;1.00;;;17.70;95.90;;;;;;5050221;28;20552;-71
2021/05/23 11:32:13;;;;;;;1.20;1.03;;;17.50;94.60;;;;;;5048686;28;20550;-71
2021/05/23 11:34:40;;;;;;;1.20;1.00;;;17.50;96.40;;;;;;5051353;28;20454;-72
2021/05/23 11:37:07;;;;;;;1.20;1.03;;;17.40;98.00;;;;;;5049071;28;20851;-71
2021/05/23 11:39:34;;;;;;;1.20;1.00;;;17.10;96.80;;;;;;5050004;28;20531;-71
2021/05/23 11:42:22;;;;;;;1.20;1.00;;;16.90;97.30;;;;;;5047327;28;20465;-72
2021/05/23 11:44:49;;;;;;;1.20;1.00;;;16.50;98.00;;;;;;5051354;28;20473;-72
2021/05/23 11:47:19;;;;;;;1.20;0.90;;;16.60;98.00;;;;;;5047740;28;20529;-73
2021/05/23 11:49:47;;;;;;;1.20;0.90;;;16.60;96.80;;;;;;5050960;28;20458;-72
2021/05/23 11:52:17;;;;;;;1.20;0.90;;;16.50;98.00;;;;;;5048564;28;20482;-72
2021/05/23 11:54:44;;;;;;;1.20;1.00;;;16.90;98.00;;;;;;5051009;28;20465;-72
2021/05/23 11:57:10;;;;;;;1.20;0.90;;;16.90;97.60;;;;;;5048239;28;20450;-72
2021/05/23 11:59:37;;;;;;;1.20;1.00;;;16.90;98.00;;;;;;5051163;28;20862;-73
2021/05/23 12:02:03;;;;;;;1.40;1.30;;;17.20;98.00;;;;;;5047204;28;20453;-73
2021/05/23 12:04:31;;;;;;;1.30;1.07;;;17.70;98.00;;;;;;5049930;28;20488;-72
2021/05/23 12:06:57;;;;;;;1.20;1.00;;;18.20;97.20;;;;;;5048044;28;20513;-72
2021/05/23 12:09:27;;;;;;;1.60;1.10;;;18.60;94.60;;;;;;5051258;28;20485;-71
2021/05/23 12:11:56;;;;;;;1.20;1.00;;;18.90;94.80;;;;;;5048102;28;21267;-71
2021/05/23 12:14:25;;;;;;;1.20;1.10;;;19.20;92.60;;;;;;5051112;28;20454;-71
2021/05/23 12:16:59;;;;;;;1.20;1.07;;;19.30;91.30;;;;;;5048946;28;20871;-71
2021/05/23 12:19:46;;;;;;;1.20;1.00;;;19.10;88.40;;;;;;5051023;28;20453;-71
2021/05/23 12:22:13;;;;;;;1.20;1.00;;;18.40;89.00;;;;;;5048295;28;20995;-71
2021/05/23 12:24:41;;;;;;;1.20;1.00;;;18.20;88.10;;;;;;5051186;28;20449;-71
2021/05/23 12:27:07;;;;;;;1.20;1.00;;;17.70;89.30;;;;;;5048451;28;21182;-70
2021/05/23 12:29:34;;;;;;;1.20;1.00;;;17.20;92.40;;;;;;5051000;28;20508;-71
2021/05/23 12:32:04;;;;;;;1.20;1.00;;;17.00;93.30;;;;;;5047141;28;20469;-72
2021/05/23 12:34:31;;;;;;;1.20;0.97;;;17.00;97.00;;;;;;5051096;28;20808;-71
2021/05/23 12:37:00;;;;;;;1.20;1.10;;;17.20;95.40;;;;;;5049117;28;20968;-71
2021/05/23 12:39:27;;;;;;;1.53;1.20;;;17.50;98.00;;;;;;5054506;28;20470;-71
2021/05/23 12:41:54;;;;;;;1.50;1.30;;;17.60;92.20;;;;;;5051477;28;20499;-71
2021/05/23 12:44:24;;;;;;;1.20;1.00;;;17.90;94.30;;;;;;5054180;28;21067;-72
2021/05/23 12:46:51;;;;;;;1.20;1.00;;;18.70;94.40;;;;;;5051498;28;20551;-71
2021/05/23 12:49:20;;;;;;;1.20;0.90;;;19.40;89.50;;;;;;5053795;28;20507;-71
2021/05/23 12:51:48;;;;;;;1.30;1.10;;;19.80;88.30;;;;;;5051463;28;20819;-72
2021/05/23 12:54:25;;;;;;;1.20;1.10;;;20.30;90.80;;;;;;5053975;28;20560;-71